sensor_id;sensor_type;location;lat;lon;timestamp;temperature;humidity
1700;DHT22;847;48.058;7.810;2023-03-12T00:00:11;5.80;84.10
1700;DHT22;847;48.058;7.810;2023-03-12T00:02:38;5.70;83.30
1700;DHT22;847;48.058;7.810;2023-03-12T00:05:07;5.60;84.20
1700;DHT22;847;48.058;7.810;2023-03-12T00:07:34;5.40;84.60
1700;DHT22;847;48.058;7.810;2023-03-12T00:10:03;5.20;84.50
1700;DHT22;847;48.058;7.810;2023-03-12T00:12:32;5.10;85.30
1700;DHT22;847;48.058;7.810;2023-03-12T00:15:01;5.30;85.00
1700;DHT22;847;48.058;7.810;2023-03-12T00:17:28;5.30;84.70
1700;DHT22;847;48.058;7.810;2023-03-12T00:19:55;5.30;85.10
1700;DHT22;847;48.058;7.810;2023-03-12T00:22:23;5.10;85.80
1700;DHT22;847;48.058;7.810;2023-03-12T00:24:50;4.80;86.60
1700;DHT22;847;48.058;7.810;2023-03-12T00:27:18;4.60;87.40
1700;DHT22;847;48.058;7.810;2023-03-12T00:29:44;4.50;87.60
1700;DHT22;847;48.058;7.810;2023-03-12T00:32:11;4.50;87.90
1700;DHT22;847;48.058;7.810;2023-03-12T00:34:38;4.90;88.10
1700;DHT22;847;48.058;7.810;2023-03-12T00:37:05;4.90;87.50
1700;DHT22;847;48.058;7.810;2023-03-12T00:39:34;4.90;87.90
1700;DHT22;847;48.058;7.810;2023-03-12T00:42:01;4.70;88.20
1700;DHT22;847;48.058;7.810;2023-03-12T00:44:27;4.70;88.20
1700;DHT22;847;48.058;7.810;2023-03-12T00:46:54;4.80;87.90
1700;DHT22;847;48.058;7.810;2023-03-12T00:49:21;4.80;87.60
1700;DHT22;847;48.058;7.810;2023-03-12T00:51:48;4.70;87.80
1700;DHT22;847;48.058;7.810;2023-03-12T00:54:14;4.70;88.40
1700;DHT22;847;48.058;7.810;2023-03-12T00:56:42;4.80;88.10
1700;DHT22;847;48.058;7.810;2023-03-12T00:59:11;4.60;88.60
1700;DHT22;847;48.058;7.810;2023-03-12T01:01:38;4.80;88.40
1700;DHT22;847;48.058;7.810;2023-03-12T01:04:04;4.70;88.50
1700;DHT22;847;48.058;7.810;2023-03-12T01:06:31;4.80;89.30
1700;DHT22;847;48.058;7.810;2023-03-12T01:08:58;4.80;89.20
1700;DHT22;847;48.058;7.810;2023-03-12T01:11:26;4.80;89.50
1700;DHT22;847;48.058;7.810;2023-03-12T01:13:54;4.70;89.30
1700;DHT22;847;48.058;7.810;2023-03-12T01:16:21;4.40;89.00
1700;DHT22;847;48.058;7.810;2023-03-12T01:18:52;4.30;89.50
1700;DHT22;847;48.058;7.810;2023-03-12T01:21:19;4.30;89.50
1700;DHT22;847;48.058;7.810;2023-03-12T01:23:46;4.30;89.70
1700;DHT22;847;48.058;7.810;2023-03-12T01:26:13;4.30;89.50
1700;DHT22;847;48.058;7.810;2023-03-12T01:28:39;4.30;89.60
1700;DHT22;847;48.058;7.810;2023-03-12T01:31:09;4.30;89.50
1700;DHT22;847;48.058;7.810;2023-03-12T01:33:36;4.30;89.40
1700;DHT22;847;48.058;7.810;2023-03-12T01:36:04;4.20;89.80
1700;DHT22;847;48.058;7.810;2023-03-12T01:38:31;4.00;91.50
1700;DHT22;847;48.058;7.810;2023-03-12T01:40:57;3.80;92.40
1700;DHT22;847;48.058;7.810;2023-03-12T01:43:27;3.80;92.70
1700;DHT22;847;48.058;7.810;2023-03-12T01:46:17;3.80;92.70
1700;DHT22;847;48.058;7.810;2023-03-12T01:48:50;3.80;92.80
1700;DHT22;847;48.058;7.810;2023-03-12T01:51:20;3.80;92.80
1700;DHT22;847;48.058;7.810;2023-03-12T01:53:50;4.00;92.40
1700;DHT22;847;48.058;7.810;2023-03-12T01:56:19;4.20;91.70
1700;DHT22;847;48.058;7.810;2023-03-12T01:58:49;4.20;92.00
1700;DHT22;847;48.058;7.810;2023-03-12T02:01:20;4.30;91.80
1700;DHT22;847;48.058;7.810;2023-03-12T02:03:50;4.20;91.60
1700;DHT22;847;48.058;7.810;2023-03-12T02:06:21;4.20;92.10
1700;DHT22;847;48.058;7.810;2023-03-12T02:08:50;4.30;92.10
1700;DHT22;847;48.058;7.810;2023-03-12T02:11:16;4.30;92.30
1700;DHT22;847;48.058;7.810;2023-03-12T02:13:43;4.30;94.60
1700;DHT22;847;48.058;7.810;2023-03-12T02:16:10;4.30;94.40
1700;DHT22;847;48.058;7.810;2023-03-12T02:18:39;4.10;95.00
1700;DHT22;847;48.058;7.810;2023-03-12T02:21:12;4.00;95.20
1700;DHT22;847;48.058;7.810;2023-03-12T02:23:44;4.00;95.10
1700;DHT22;847;48.058;7.810;2023-03-12T02:26:16;3.80;95.60
1700;DHT22;847;48.058;7.810;2023-03-12T02:28:44;3.80;96.40
1700;DHT22;847;48.058;7.810;2023-03-12T02:31:14;3.90;96.50
1700;DHT22;847;48.058;7.810;2023-03-12T02:33:42;3.90;97.50
1700;DHT22;847;48.058;7.810;2023-03-12T02:36:09;3.90;98.00
1700;DHT22;847;48.058;7.810;2023-03-12T02:38:40;3.90;97.90
1700;DHT22;847;48.058;7.810;2023-03-12T02:41:13;3.90;98.20
1700;DHT22;847;48.058;7.810;2023-03-12T02:43:44;3.90;98.60
1700;DHT22;847;48.058;7.810;2023-03-12T02:46:11;4.00;98.60
1700;DHT22;847;48.058;7.810;2023-03-12T02:48:39;4.20;98.30
1700;DHT22;847;48.058;7.810;2023-03-12T02:51:06;4.20;97.50
1700;DHT22;847;48.058;7.810;2023-03-12T02:53:32;4.30;96.70
1700;DHT22;847;48.058;7.810;2023-03-12T02:55:59;4.30;96.60
1700;DHT22;847;48.058;7.810;2023-03-12T02:58:26;4.40;96.70
1700;DHT22;847;48.058;7.810;2023-03-12T03:00:54;4.40;96.40
1700;DHT22;847;48.058;7.810;2023-03-12T03:03:21;4.50;96.70
1700;DHT22;847;48.058;7.810;2023-03-12T03:05:48;4.50;96.30
1700;DHT22;847;48.058;7.810;2023-03-12T03:08:17;4.60;96.70
1700;DHT22;847;48.058;7.810;2023-03-12T03:10:44;4.60;96.50
1700;DHT22;847;48.058;7.810;2023-03-12T03:13:11;4.70;96.80
1700;DHT22;847;48.058;7.810;2023-03-12T03:15:38;4.80;96.50
1700;DHT22;847;48.058;7.810;2023-03-12T03:18:06;4.90;96.80
1700;DHT22;847;48.058;7.810;2023-03-12T03:20:33;4.80;97.30
1700;DHT22;847;48.058;7.810;2023-03-12T03:23:00;4.70;97.50
1700;DHT22;847;48.058;7.810;2023-03-12T03:25:26;4.50;97.90
1700;DHT22;847;48.058;7.810;2023-03-12T03:27:53;4.50;98.80
1700;DHT22;847;48.058;7.810;2023-03-12T03:30:20;4.40;99.00
1700;DHT22;847;48.058;7.810;2023-03-12T03:32:47;4.40;99.00
1700;DHT22;847;48.058;7.810;2023-03-12T03:35:16;4.30;99.00
1700;DHT22;847;48.058;7.810;2023-03-12T03:37:43;4.30;99.00
1700;DHT22;847;48.058;7.810;2023-03-12T03:40:10;4.20;99.00
1700;DHT22;847;48.058;7.810;2023-03-12T03:42:38;4.10;99.00
1700;DHT22;847;48.058;7.810;2023-03-12T03:45:06;4.20;99.00
1700;DHT22;847;48.058;7.810;2023-03-12T03:47:33;4.30;99.00
1700;DHT22;847;48.058;7.810;2023-03-12T03:50:00;4.30;99.00
1700;DHT22;847;48.058;7.810;2023-03-12T03:52:28;4.40;99.00
1700;DHT22;847;48.058;7.810;2023-03-12T03:54:56;4.40;99.00
1700;DHT22;847;48.058;7.810;2023-03-12T03:57:23;4.30;99.00
1700;DHT22;847;48.058;7.810;2023-03-12T03:59:50;4.30;99.00
1700;DHT22;847;48.058;7.810;2023-03-12T04:02:17;4.40;99.00
1700;DHT22;847;48.058;7.810;2023-03-12T04:04:44;4.40;99.00
1700;DHT22;847;48.058;7.810;2023-03-12T04:07:10;4.40;99.00
1700;DHT22;847;48.058;7.810;2023-03-12T04:09:38;4.40;99.00
1700;DHT22;847;48.058;7.810;2023-03-12T04:12:06;4.50;99.00
1700;DHT22;847;48.058;7.810;2023-03-12T04:14:33;4.40;99.00
1700;DHT22;847;48.058;7.810;2023-03-12T04:17:00;4.40;99.00
1700;DHT22;847;48.058;7.810;2023-03-12T04:19:26;4.40;99.00
1700;DHT22;847;48.058;7.810;2023-03-12T04:21:53;4.40;99.00
1700;DHT22;847;48.058;7.810;2023-03-12T04:24:20;4.60;99.00
1700;DHT22;847;48.058;7.810;2023-03-12T04:26:48;4.60;99.00
1700;DHT22;847;48.058;7.810;2023-03-12T04:29:16;4.80;99.00
1700;DHT22;847;48.058;7.810;2023-03-12T04:31:43;5.10;99.00
1700;DHT22;847;48.058;7.810;2023-03-12T04:34:10;5.40;99.00
1700;DHT22;847;48.058;7.810;2023-03-12T04:36:40;5.70;99.00
1700;DHT22;847;48.058;7.810;2023-03-12T04:39:07;5.80;99.00
1700;DHT22;847;48.058;7.810;2023-03-12T04:41:34;6.00;99.00
1700;DHT22;847;48.058;7.810;2023-03-12T04:44:03;6.10;99.00
1700;DHT22;847;48.058;7.810;2023-03-12T04:46:30;6.20;99.00
1700;DHT22;847;48.058;7.810;2023-03-12T04:48:57;6.30;99.00
1700;DHT22;847;48.058;7.810;2023-03-12T04:51:27;6.40;99.00
1700;DHT22;847;48.058;7.810;2023-03-12T04:53:53;6.50;99.00
1700;DHT22;847;48.058;7.810;2023-03-12T04:56:20;6.50;99.00
1700;DHT22;847;48.058;7.810;2023-03-12T04:58:47;6.60;99.00
1700;DHT22;847;48.058;7.810;2023-03-12T05:01:22;6.60;99.00
1700;DHT22;847;48.058;7.810;2023-03-12T05:03:49;6.70;99.00
1700;DHT22;847;48.058;7.810;2023-03-12T05:06:16;6.70;99.00
1700;DHT22;847;48.058;7.810;2023-03-12T05:08:43;6.80;99.00
1700;DHT22;847;48.058;7.810;2023-03-12T05:11:09;6.80;99.00
1700;DHT22;847;48.058;7.810;2023-03-12T05:13:36;6.80;99.00
1700;DHT22;847;48.058;7.810;2023-03-12T05:16:04;6.80;99.00
1700;DHT22;847;48.058;7.810;2023-03-12T05:18:32;6.90;99.00
1700;DHT22;847;48.058;7.810;2023-03-12T05:21:00;6.90;99.00
1700;DHT22;847;48.058;7.810;2023-03-12T05:23:27;6.90;99.00
1700;DHT22;847;48.058;7.810;2023-03-12T05:25:54;6.90;99.00
1700;DHT22;847;48.058;7.810;2023-03-12T05:28:21;7.00;99.00
1700;DHT22;847;48.058;7.810;2023-03-12T05:30:53;7.00;99.00
1700;DHT22;847;48.058;7.810;2023-03-12T05:33:20;7.00;99.00
1700;DHT22;847;48.058;7.810;2023-03-12T05:35:50;7.10;99.00
1700;DHT22;847;48.058;7.810;2023-03-12T05:38:17;7.10;99.00
1700;DHT22;847;48.058;7.810;2023-03-12T05:40:50;7.10;99.00
1700;DHT22;847;48.058;7.810;2023-03-12T05:43:18;7.10;99.00
1700;DHT22;847;48.058;7.810;2023-03-12T05:45:45;7.20;99.00
1700;DHT22;847;48.058;7.810;2023-03-12T05:48:12;7.20;99.00
1700;DHT22;847;48.058;7.810;2023-03-12T05:50:39;7.20;99.00
1700;DHT22;847;48.058;7.810;2023-03-12T05:53:07;7.20;99.00
1700;DHT22;847;48.058;7.810;2023-03-12T05:55:35;7.30;99.00
1700;DHT22;847;48.058;7.810;2023-03-12T05:58:02;7.30;99.00
1700;DHT22;847;48.058;7.810;2023-03-12T06:00:29;7.30;99.00
1700;DHT22;847;48.058;7.810;2023-03-12T06:02:56;7.30;99.00
1700;DHT22;847;48.058;7.810;2023-03-12T06:05:22;7.30;99.00
1700;DHT22;847;48.058;7.810;2023-03-12T06:07:49;7.30;99.00
1700;DHT22;847;48.058;7.810;2023-03-12T06:10:17;7.30;99.00
1700;DHT22;847;48.058;7.810;2023-03-12T06:12:44;7.40;99.00
1700;DHT22;847;48.058;7.810;2023-03-12T06:15:11;7.40;99.00
1700;DHT22;847;48.058;7.810;2023-03-12T06:17:38;7.40;99.00
1700;DHT22;847;48.058;7.810;2023-03-12T06:20:06;7.50;99.00
1700;DHT22;847;48.058;7.810;2023-03-12T06:22:33;7.50;99.00
1700;DHT22;847;48.058;7.810;2023-03-12T06:24:59;7.50;99.00
1700;DHT22;847;48.058;7.810;2023-03-12T06:27:28;7.50;99.00
1700;DHT22;847;48.058;7.810;2023-03-12T06:29:55;7.50;99.00
1700;DHT22;847;48.058;7.810;2023-03-12T06:32:22;7.50;99.00
1700;DHT22;847;48.058;7.810;2023-03-12T06:34:49;7.50;99.00
1700;DHT22;847;48.058;7.810;2023-03-12T06:37:16;7.50;99.00
1700;DHT22;847;48.058;7.810;2023-03-12T06:39:43;7.50;99.00
1700;DHT22;847;48.058;7.810;2023-03-12T06:42:10;7.60;99.00
1700;DHT22;847;48.058;7.810;2023-03-12T06:44:41;7.60;99.00
1700;DHT22;847;48.058;7.810;2023-03-12T06:47:08;7.60;99.00
1700;DHT22;847;48.058;7.810;2023-03-12T06:49:35;7.60;99.00
1700;DHT22;847;48.058;7.810;2023-03-12T06:52:03;7.60;99.00
1700;DHT22;847;48.058;7.810;2023-03-12T06:56:58;7.60;99.00
1700;DHT22;847;48.058;7.810;2023-03-12T06:59:26;7.70;99.00
1700;DHT22;847;48.058;7.810;2023-03-12T07:01:56;7.70;99.00
1700;DHT22;847;48.058;7.810;2023-03-12T07:04:23;7.70;99.00
1700;DHT22;847;48.058;7.810;2023-03-12T07:06:51;7.70;99.00
1700;DHT22;847;48.058;7.810;2023-03-12T07:09:19;7.80;99.00
1700;DHT22;847;48.058;7.810;2023-03-12T07:11:46;7.90;99.00
1700;DHT22;847;48.058;7.810;2023-03-12T07:14:22;8.00;99.00
1700;DHT22;847;48.058;7.810;2023-03-12T07:16:50;8.00;99.00
1700;DHT22;847;48.058;7.810;2023-03-12T07:19:18;8.10;99.00
1700;DHT22;847;48.058;7.810;2023-03-12T07:21:49;8.10;99.00
1700;DHT22;847;48.058;7.810;2023-03-12T07:24:21;8.10;99.00
1700;DHT22;847;48.058;7.810;2023-03-12T07:26:49;8.10;99.00
1700;DHT22;847;48.058;7.810;2023-03-12T07:29:22;8.10;99.00
1700;DHT22;847;48.058;7.810;2023-03-12T07:31:51;8.10;99.00
1700;DHT22;847;48.058;7.810;2023-03-12T07:34:20;8.20;99.00
1700;DHT22;847;48.058;7.810;2023-03-12T07:36:46;8.20;99.00
1700;DHT22;847;48.058;7.810;2023-03-12T07:39:13;8.20;99.00
1700;DHT22;847;48.058;7.810;2023-03-12T07:41:40;8.30;99.00
1700;DHT22;847;48.058;7.810;2023-03-12T07:44:07;8.20;99.00
1700;DHT22;847;48.058;7.810;2023-03-12T07:46:34;8.30;99.00
1700;DHT22;847;48.058;7.810;2023-03-12T07:49:00;8.30;99.00
1700;DHT22;847;48.058;7.810;2023-03-12T07:51:30;8.30;99.00
1700;DHT22;847;48.058;7.810;2023-03-12T07:53:57;8.40;99.00
1700;DHT22;847;48.058;7.810;2023-03-12T07:56:23;8.40;99.00
1700;DHT22;847;48.058;7.810;2023-03-12T07:58:50;8.40;99.00
1700;DHT22;847;48.058;7.810;2023-03-12T08:01:17;8.40;99.00
1700;DHT22;847;48.058;7.810;2023-03-12T08:03:44;8.50;99.00
1700;DHT22;847;48.058;7.810;2023-03-12T08:06:11;8.50;99.00
1700;DHT22;847;48.058;7.810;2023-03-12T08:08:39;8.60;99.00
1700;DHT22;847;48.058;7.810;2023-03-12T08:11:07;8.60;99.00
1700;DHT22;847;48.058;7.810;2023-03-12T08:13:34;8.60;99.00
1700;DHT22;847;48.058;7.810;2023-03-12T08:16:01;8.60;99.00
1700;DHT22;847;48.058;7.810;2023-03-12T08:18:27;8.70;99.00
1700;DHT22;847;48.058;7.810;2023-03-12T08:20:54;8.70;99.00
1700;DHT22;847;48.058;7.810;2023-03-12T08:23:21;8.70;99.00
1700;DHT22;847;48.058;7.810;2023-03-12T08:25:50;8.70;99.00
1700;DHT22;847;48.058;7.810;2023-03-12T08:28:17;8.70;99.00
1700;DHT22;847;48.058;7.810;2023-03-12T08:30:46;8.80;99.00
1700;DHT22;847;48.058;7.810;2023-03-12T08:33:12;8.80;99.00
1700;DHT22;847;48.058;7.810;2023-03-12T08:35:39;8.90;99.00
1700;DHT22;847;48.058;7.810;2023-03-12T08:38:06;8.90;99.00
1700;DHT22;847;48.058;7.810;2023-03-12T08:40:33;8.90;99.00
1700;DHT22;847;48.058;7.810;2023-03-12T08:43:02;9.00;99.00
1700;DHT22;847;48.058;7.810;2023-03-12T08:45:29;9.10;99.00
1700;DHT22;847;48.058;7.810;2023-03-12T08:47:57;9.10;99.00
1700;DHT22;847;48.058;7.810;2023-03-12T08:50:24;9.20;99.00
1700;DHT22;847;48.058;7.810;2023-03-12T08:52:53;9.20;99.00
1700;DHT22;847;48.058;7.810;2023-03-12T08:55:20;9.20;99.00
1700;DHT22;847;48.058;7.810;2023-03-12T08:57:47;9.30;99.00
1700;DHT22;847;48.058;7.810;2023-03-12T09:00:19;9.30;99.00
1700;DHT22;847;48.058;7.810;2023-03-12T09:02:46;9.40;99.00
1700;DHT22;847;48.058;7.810;2023-03-12T09:05:15;9.40;99.00
1700;DHT22;847;48.058;7.810;2023-03-12T09:07:42;9.50;99.00
1700;DHT22;847;48.058;7.810;2023-03-12T09:10:12;9.40;99.00
1700;DHT22;847;48.058;7.810;2023-03-12T09:12:38;9.50;99.00
1700;DHT22;847;48.058;7.810;2023-03-12T09:15:06;9.50;99.00
1700;DHT22;847;48.058;7.810;2023-03-12T09:17:35;9.50;99.00
1700;DHT22;847;48.058;7.810;2023-03-12T09:20:02;9.60;99.00
1700;DHT22;847;48.058;7.810;2023-03-12T09:22:32;9.60;99.00
1700;DHT22;847;48.058;7.810;2023-03-12T09:25:01;9.60;99.00
1700;DHT22;847;48.058;7.810;2023-03-12T09:27:28;9.70;99.00
1700;DHT22;847;48.058;7.810;2023-03-12T09:29:55;9.70;99.00
1700;DHT22;847;48.058;7.810;2023-03-12T09:32:22;9.80;99.00
1700;DHT22;847;48.058;7.810;2023-03-12T09:34:50;9.80;99.00
1700;DHT22;847;48.058;7.810;2023-03-12T09:37:17;9.80;99.00
1700;DHT22;847;48.058;7.810;2023-03-12T09:39:44;9.90;99.00
1700;DHT22;847;48.058;7.810;2023-03-12T09:42:18;9.90;99.00
1700;DHT22;847;48.058;7.810;2023-03-12T09:44:49;9.90;99.00
1700;DHT22;847;48.058;7.810;2023-03-12T09:47:24;9.90;99.00
1700;DHT22;847;48.058;7.810;2023-03-12T09:49:55;10.00;99.00
1700;DHT22;847;48.058;7.810;2023-03-12T09:52:28;10.00;99.00
1700;DHT22;847;48.058;7.810;2023-03-12T09:55:01;10.10;99.00
1700;DHT22;847;48.058;7.810;2023-03-12T09:57:28;10.20;99.00
1700;DHT22;847;48.058;7.810;2023-03-12T09:59:56;10.20;99.00
1700;DHT22;847;48.058;7.810;2023-03-12T10:02:42;10.20;99.00
1700;DHT22;847;48.058;7.810;2023-03-12T10:05:17;10.20;99.00
1700;DHT22;847;48.058;7.810;2023-03-12T10:07:47;10.20;99.00
1700;DHT22;847;48.058;7.810;2023-03-12T10:10:38;10.20;99.00
1700;DHT22;847;48.058;7.810;2023-03-12T10:13:18;10.20;99.00
1700;DHT22;847;48.058;7.810;2023-03-12T10:15:58;10.10;99.00
1700;DHT22;847;48.058;7.810;2023-03-12T10:18:36;10.20;99.00
1700;DHT22;847;48.058;7.810;2023-03-12T10:21:10;10.20;99.00
1700;DHT22;847;48.058;7.810;2023-03-12T10:23:55;10.30;99.00
1700;DHT22;847;48.058;7.810;2023-03-12T10:26:26;10.30;99.00
1700;DHT22;847;48.058;7.810;2023-03-12T10:28:58;10.30;99.00
1700;DHT22;847;48.058;7.810;2023-03-12T10:31:29;10.40;99.00
1700;DHT22;847;48.058;7.810;2023-03-12T10:33:59;10.60;99.00
1700;DHT22;847;48.058;7.810;2023-03-12T10:36:32;10.70;99.00
1700;DHT22;847;48.058;7.810;2023-03-12T10:38:59;10.80;99.00
1700;DHT22;847;48.058;7.810;2023-03-12T10:41:29;10.80;99.00
1700;DHT22;847;48.058;7.810;2023-03-12T10:44:00;10.80;99.00
1700;DHT22;847;48.058;7.810;2023-03-12T10:46:50;10.80;99.00
1700;DHT22;847;48.058;7.810;2023-03-12T10:49:27;11.00;99.00
1700;DHT22;847;48.058;7.810;2023-03-12T10:51:58;11.00;99.00
1700;DHT22;847;48.058;7.810;2023-03-12T10:54:30;11.10;99.00
1700;DHT22;847;48.058;7.810;2023-03-12T10:56:57;11.10;99.00
1700;DHT22;847;48.058;7.810;2023-03-12T10:59:28;11.20;99.00
1700;DHT22;847;48.058;7.810;2023-03-12T11:01:56;11.40;99.00
1700;DHT22;847;48.058;7.810;2023-03-12T11:04:25;11.50;99.00
1700;DHT22;847;48.058;7.810;2023-03-12T11:07:19;11.60;99.00
1700;DHT22;847;48.058;7.810;2023-03-12T11:10:21;11.80;99.00
1700;DHT22;847;48.058;7.810;2023-03-12T11:12:57;11.90;99.00
1700;DHT22;847;48.058;7.810;2023-03-12T11:15:26;12.00;99.00
1700;DHT22;847;48.058;7.810;2023-03-12T11:21:18;12.00;99.00
1700;DHT22;847;48.058;7.810;2023-03-12T11:24:04;12.10;99.00
1700;DHT22;847;48.058;7.810;2023-03-12T11:26:36;12.00;99.00
1700;DHT22;847;48.058;7.810;2023-03-12T11:29:09;12.00;99.00
1700;DHT22;847;48.058;7.810;2023-03-12T11:31:41;11.90;99.00
1700;DHT22;847;48.058;7.810;2023-03-12T11:34:18;11.80;99.00
1700;DHT22;847;48.058;7.810;2023-03-12T11:36:55;12.00;99.00
1700;DHT22;847;48.058;7.810;2023-03-12T11:39:32;12.00;99.00
1700;DHT22;847;48.058;7.810;2023-03-12T11:42:11;12.00;99.00
1700;DHT22;847;48.058;7.810;2023-03-12T11:44:50;12.00;99.00
1700;DHT22;847;48.058;7.810;2023-03-12T11:47:30;12.00;99.00
1700;DHT22;847;48.058;7.810;2023-03-12T11:50:10;11.90;99.00
1700;DHT22;847;48.058;7.810;2023-03-12T11:52:51;11.90;99.00
1700;DHT22;847;48.058;7.810;2023-03-12T11:55:43;11.90;99.00
1700;DHT22;847;48.058;7.810;2023-03-12T11:58:24;11.90;99.00
1700;DHT22;847;48.058;7.810;2023-03-12T12:00:56;11.90;99.00
1700;DHT22;847;48.058;7.810;2023-03-12T12:03:43;12.00;99.00
1700;DHT22;847;48.058;7.810;2023-03-12T12:06:22;12.00;99.00
1700;DHT22;847;48.058;7.810;2023-03-12T12:09:03;12.00;99.00
1700;DHT22;847;48.058;7.810;2023-03-12T12:11:41;12.00;99.00
1700;DHT22;847;48.058;7.810;2023-03-12T12:14:17;12.00;99.00
1700;DHT22;847;48.058;7.810;2023-03-12T12:16:57;12.00;99.00
1700;DHT22;847;48.058;7.810;2023-03-12T12:19:45;12.00;99.00
1700;DHT22;847;48.058;7.810;2023-03-12T12:22:33;12.00;99.00
1700;DHT22;847;48.058;7.810;2023-03-12T12:25:15;12.00;98.70
1700;DHT22;847;48.058;7.810;2023-03-12T12:27:55;12.10;98.70
1700;DHT22;847;48.058;7.810;2023-03-12T12:30:36;12.10;98.30
1700;DHT22;847;48.058;7.810;2023-03-12T12:33:17;12.10;96.90
1700;DHT22;847;48.058;7.810;2023-03-12T12:35:48;12.10;95.10
1700;DHT22;847;48.058;7.810;2023-03-12T12:38:21;12.10;95.10
1700;DHT22;847;48.058;7.810;2023-03-12T12:40:59;12.00;94.30
1700;DHT22;847;48.058;7.810;2023-03-12T12:43:30;12.10;93.00
1700;DHT22;847;48.058;7.810;2023-03-12T12:46:01;12.10;92.90
1700;DHT22;847;48.058;7.810;2023-03-12T12:48:33;12.10;92.50
1700;DHT22;847;48.058;7.810;2023-03-12T12:51:03;12.10;92.00
1700;DHT22;847;48.058;7.810;2023-03-12T12:53:36;12.10;90.90
1700;DHT22;847;48.058;7.810;2023-03-12T12:56:11;12.10;90.20
1700;DHT22;847;48.058;7.810;2023-03-12T13:02:18;12.30;86.70
1700;DHT22;847;48.058;7.810;2023-03-12T13:04:47;12.40;87.00
1700;DHT22;847;48.058;7.810;2023-03-12T13:07:33;12.70;87.80
1700;DHT22;847;48.058;7.810;2023-03-12T13:10:04;12.90;88.20
1700;DHT22;847;48.058;7.810;2023-03-12T13:12:34;12.90;86.90
1700;DHT22;847;48.058;7.810;2023-03-12T13:18:07;12.90;86.50
1700;DHT22;847;48.058;7.810;2023-03-12T13:20:45;12.90;85.70
1700;DHT22;847;48.058;7.810;2023-03-12T13:25:27;12.90;85.00
1700;DHT22;847;48.058;7.810;2023-03-12T13:27:58;12.90;82.60
1700;DHT22;847;48.058;7.810;2023-03-12T13:30:53;12.80;84.80
1700;DHT22;847;48.058;7.810;2023-03-12T13:33:36;12.80;83.90
1700;DHT22;847;48.058;7.810;2023-03-12T13:36:11;12.80;85.00
1700;DHT22;847;48.058;7.810;2023-03-12T13:38:54;12.80;85.00
1700;DHT22;847;48.058;7.810;2023-03-12T13:41:37;13.00;83.90
1700;DHT22;847;48.058;7.810;2023-03-12T13:44:27;13.00;85.30
1700;DHT22;847;48.058;7.810;2023-03-12T13:46:59;13.10;85.10
1700;DHT22;847;48.058;7.810;2023-03-12T13:49:32;13.10;85.20
1700;DHT22;847;48.058;7.810;2023-03-12T13:52:09;13.10;83.10
1700;DHT22;847;48.058;7.810;2023-03-12T13:54:41;13.10;82.70
1700;DHT22;847;48.058;7.810;2023-03-12T13:57:20;13.10;83.40
1700;DHT22;847;48.058;7.810;2023-03-12T13:59:51;13.10;83.30
1700;DHT22;847;48.058;7.810;2023-03-12T14:02:23;13.10;82.90
1700;DHT22;847;48.058;7.810;2023-03-12T14:04:51;13.10;82.70
1700;DHT22;847;48.058;7.810;2023-03-12T14:07:45;13.10;82.00
1700;DHT22;847;48.058;7.810;2023-03-12T14:10:25;13.20;80.50
1700;DHT22;847;48.058;7.810;2023-03-12T14:13:04;13.20;80.70
1700;DHT22;847;48.058;7.810;2023-03-12T14:15:37;13.20;80.10
1700;DHT22;847;48.058;7.810;2023-03-12T14:18:12;13.20;80.30
1700;DHT22;847;48.058;7.810;2023-03-12T14:20:50;13.20;80.30
1700;DHT22;847;48.058;7.810;2023-03-12T14:23:18;13.30;78.50
1700;DHT22;847;48.058;7.810;2023-03-12T14:25:46;13.20;80.00
1700;DHT22;847;48.058;7.810;2023-03-12T14:28:18;13.10;80.50
1700;DHT22;847;48.058;7.810;2023-03-12T14:30:50;13.10;80.80
1700;DHT22;847;48.058;7.810;2023-03-12T14:33:21;13.00;81.50
1700;DHT22;847;48.058;7.810;2023-03-12T14:35:52;13.10;80.60
1700;DHT22;847;48.058;7.810;2023-03-12T14:38:25;13.20;80.60
1700;DHT22;847;48.058;7.810;2023-03-12T14:40:59;13.30;80.30
1700;DHT22;847;48.058;7.810;2023-03-12T14:43:30;13.30;80.00
1700;DHT22;847;48.058;7.810;2023-03-12T14:45:59;13.30;79.40
1700;DHT22;847;48.058;7.810;2023-03-12T14:48:28;13.30;79.70
1700;DHT22;847;48.058;7.810;2023-03-12T14:50:56;13.20;79.30
1700;DHT22;847;48.058;7.810;2023-03-12T14:53:25;13.20;79.60
1700;DHT22;847;48.058;7.810;2023-03-12T14:55:59;13.30;79.20
1700;DHT22;847;48.058;7.810;2023-03-12T14:58:26;13.40;77.50
1700;DHT22;847;48.058;7.810;2023-03-12T15:00:56;13.50;78.20
1700;DHT22;847;48.058;7.810;2023-03-12T15:03:24;13.40;79.10
1700;DHT22;847;48.058;7.810;2023-03-12T15:05:52;13.40;79.50
1700;DHT22;847;48.058;7.810;2023-03-12T15:08:19;13.50;78.70
1700;DHT22;847;48.058;7.810;2023-03-12T15:10:48;13.40;78.50
1700;DHT22;847;48.058;7.810;2023-03-12T15:13:16;13.40;79.30
1700;DHT22;847;48.058;7.810;2023-03-12T15:15:46;13.40;78.90
1700;DHT22;847;48.058;7.810;2023-03-12T15:18:18;13.50;78.10
1700;DHT22;847;48.058;7.810;2023-03-12T15:20:47;13.40;78.90
1700;DHT22;847;48.058;7.810;2023-03-12T15:23:16;13.40;79.10
1700;DHT22;847;48.058;7.810;2023-03-12T15:25:44;13.40;79.80
1700;DHT22;847;48.058;7.810;2023-03-12T15:28:26;13.50;79.50
1700;DHT22;847;48.058;7.810;2023-03-12T15:31:10;13.50;78.70
1700;DHT22;847;48.058;7.810;2023-03-12T15:33:40;13.40;80.00
1700;DHT22;847;48.058;7.810;2023-03-12T15:36:22;13.40;79.70
1700;DHT22;847;48.058;7.810;2023-03-12T15:38:52;13.40;79.40
1700;DHT22;847;48.058;7.810;2023-03-12T15:41:21;13.40;79.80
1700;DHT22;847;48.058;7.810;2023-03-12T15:43:51;13.30;79.70
1700;DHT22;847;48.058;7.810;2023-03-12T15:46:20;13.40;80.50
1700;DHT22;847;48.058;7.810;2023-03-12T15:48:50;13.40;80.30
1700;DHT22;847;48.058;7.810;2023-03-12T15:51:30;13.40;79.00
1700;DHT22;847;48.058;7.810;2023-03-12T15:53:59;13.40;79.60
1700;DHT22;847;48.058;7.810;2023-03-12T15:56:26;13.40;79.50
1700;DHT22;847;48.058;7.810;2023-03-12T15:59:03;13.40;80.30
1700;DHT22;847;48.058;7.810;2023-03-12T16:01:43;13.40;81.10
1700;DHT22;847;48.058;7.810;2023-03-12T16:04:12;13.40;80.30
1700;DHT22;847;48.058;7.810;2023-03-12T16:06:39;13.30;81.00
1700;DHT22;847;48.058;7.810;2023-03-12T16:09:11;13.40;80.70
1700;DHT22;847;48.058;7.810;2023-03-12T16:11:40;13.30;81.30
1700;DHT22;847;48.058;7.810;2023-03-12T16:14:13;13.30;81.40
1700;DHT22;847;48.058;7.810;2023-03-12T16:16:41;13.30;81.00
1700;DHT22;847;48.058;7.810;2023-03-12T16:19:13;13.30;81.00
1700;DHT22;847;48.058;7.810;2023-03-12T16:21:41;13.30;81.50
1700;DHT22;847;48.058;7.810;2023-03-12T16:24:09;13.30;81.20
1700;DHT22;847;48.058;7.810;2023-03-12T16:26:39;13.30;81.80
1700;DHT22;847;48.058;7.810;2023-03-12T16:29:13;13.30;81.80
1700;DHT22;847;48.058;7.810;2023-03-12T16:31:40;13.20;82.50
1700;DHT22;847;48.058;7.810;2023-03-12T16:34:08;13.20;82.50
1700;DHT22;847;48.058;7.810;2023-03-12T16:36:37;13.20;81.80
1700;DHT22;847;48.058;7.810;2023-03-12T16:39:04;13.20;81.10
1700;DHT22;847;48.058;7.810;2023-03-12T16:41:31;13.20;81.10
1700;DHT22;847;48.058;7.810;2023-03-12T16:43:57;13.20;81.90
1700;DHT22;847;48.058;7.810;2023-03-12T16:46:27;13.10;81.60
1700;DHT22;847;48.058;7.810;2023-03-12T16:48:55;13.10;81.90
1700;DHT22;847;48.058;7.810;2023-03-12T16:51:21;13.10;81.60
1700;DHT22;847;48.058;7.810;2023-03-12T16:53:50;13.10;81.40
1700;DHT22;847;48.058;7.810;2023-03-12T16:56:18;13.10;81.90
1700;DHT22;847;48.058;7.810;2023-03-12T16:58:46;13.10;82.10
1700;DHT22;847;48.058;7.810;2023-03-12T17:01:15;13.00;81.60